createdAt,value
2018-12-16T00:02:03.184Z,30.17
2018-12-16T00:04:33.875Z,42.50
2018-12-16T00:07:06.532Z,34.13
2018-12-16T00:09:45.164Z,29.97
2018-12-16T00:12:22.265Z,31.57
2018-12-16T00:14:52.866Z,30.70
2018-12-16T00:17:24.692Z,30.63
2018-12-16T00:20:00.465Z,39.20
2018-12-16T00:22:30.639Z,39.77
2018-12-16T00:25:03.406Z,96.07
2018-12-16T00:27:35.924Z,67.03
2018-12-16T00:30:07.945Z,88.33
2018-12-16T00:32:40.344Z,54.87
2018-12-16T00:35:16.251Z,45.57
2018-12-16T00:37:46.185Z,53.63
2018-12-16T00:40:16.756Z,43.73
2018-12-16T00:42:52.727Z,81.90
2018-12-16T00:45:26.445Z,116.77
2018-12-16T00:48:04.256Z,39.37
2018-12-16T00:50:36.987Z,35.17
2018-12-16T00:53:12.016Z,36.47
2018-12-16T00:55:43.744Z,42.63
2018-12-16T00:58:16.404Z,48.37
2018-12-16T01:00:49.076Z,66.13
2018-12-16T01:03:21.766Z,45.50
2018-12-16T01:05:53.365Z,73.67
2018-12-16T01:08:26.854Z,46.10
2018-12-16T01:10:56.979Z,65.43
2018-12-16T01:13:31.706Z,43.90
2018-12-16T01:16:03.506Z,54.60
2018-12-16T01:18:39.346Z,59.53
2018-12-16T01:21:12.394Z,34.13
2018-12-16T01:23:44.930Z,46.80
2018-12-16T01:26:21.725Z,35.03
2018-12-16T01:28:54.386Z,34.47
2018-12-16T01:31:30.285Z,34.70
2018-12-16T01:34:06.144Z,32.80
2018-12-16T01:36:41.765Z,35.73
2018-12-16T01:39:13.705Z,28.30
2018-12-16T01:41:45.307Z,29.10
2018-12-16T01:44:16.164Z,31.17
2018-12-16T01:46:46.865Z,30.50
2018-12-16T01:49:17.265Z,31.33
2018-12-16T01:51:49.194Z,29.60
2018-12-16T01:54:21.008Z,29.10
2018-12-16T01:56:53.964Z,27.80
2018-12-16T01:59:25.514Z,27.77
2018-12-16T02:01:58.735Z,28.37
2018-12-16T02:04:30.333Z,26.27
2018-12-16T02:07:10.393Z,30.03
2018-12-16T02:09:40.294Z,26.40
2018-12-16T02:12:13.034Z,27.83
2018-12-16T02:14:45.513Z,27.33
2018-12-16T02:29:47.864Z,25.67
2018-12-16T02:32:20.376Z,24.93
2018-12-16T02:34:52.626Z,26.47
2018-12-16T02:37:24.886Z,26.80
2018-12-16T02:40:00.534Z,26.87
2018-12-16T02:42:32.323Z,25.97
2018-12-16T02:45:08.103Z,26.93
2018-12-16T02:47:47.154Z,25.93
2018-12-16T02:50:23.504Z,25.83
2018-12-16T02:52:55.585Z,27.80
2018-12-16T02:55:27.265Z,27.33
2018-12-16T02:57:55.780Z,27.37
2018-12-16T03:00:24.115Z,27.37
2018-12-16T03:02:52.533Z,28.80
2018-12-16T03:05:21.146Z,26.27
2018-12-16T03:07:49.682Z,26.83
2018-12-16T03:10:18.037Z,27.07
2018-12-16T03:12:46.639Z,27.50
2018-12-16T03:15:15.090Z,25.33
2018-12-16T03:17:43.576Z,26.93
2018-12-16T03:20:12.046Z,26.03
2018-12-16T03:22:40.504Z,25.97
2018-12-16T03:25:09.056Z,26.70
2018-12-16T03:27:37.393Z,27.67
2018-12-16T03:30:06.770Z,26.77
2018-12-16T03:32:35.381Z,29.00
2018-12-16T03:35:03.921Z,27.47
2018-12-16T03:37:32.421Z,26.60
2018-12-16T03:40:00.912Z,28.13
2018-12-16T03:42:29.335Z,26.20
2018-12-16T03:44:57.799Z,28.07
2018-12-16T03:47:26.263Z,28.10
2018-12-16T03:49:54.792Z,29.23
2018-12-16T03:52:23.270Z,27.73
2018-12-16T03:54:52.128Z,29.83
2018-12-16T03:57:20.591Z,29.97
2018-12-16T03:59:48.993Z,27.83
2018-12-16T04:02:17.485Z,27.40
2018-12-16T04:04:46.008Z,28.83
2018-12-16T04:07:14.464Z,28.77
2018-12-16T04:09:42.947Z,28.47
2018-12-16T04:12:11.436Z,28.37
2018-12-16T04:14:41.348Z,28.77
2018-12-16T04:17:10.041Z,27.30
2018-12-16T04:19:38.367Z,26.17
2018-12-16T04:22:06.750Z,27.40
2018-12-16T04:24:35.134Z,26.77
2018-12-16T04:27:03.532Z,26.43
2018-12-16T04:29:31.864Z,28.30
2018-12-16T04:32:00.521Z,25.87
2018-12-16T04:34:28.951Z,28.57
2018-12-16T04:36:57.386Z,27.53
2018-12-16T04:39:25.819Z,32.57
2018-12-16T04:41:54.398Z,33.00
2018-12-16T04:44:22.953Z,30.63
2018-12-16T04:46:51.378Z,29.60
2018-12-16T04:49:19.931Z,35.57
2018-12-16T04:51:48.420Z,36.40
2018-12-16T04:54:17.007Z,35.83
2018-12-16T04:56:45.485Z,40.90
2018-12-16T04:59:13.928Z,41.83
2018-12-16T05:01:42.422Z,39.07
2018-12-16T05:04:11.338Z,40.73
2018-12-16T05:06:40.013Z,38.30
2018-12-16T05:09:08.506Z,37.60
2018-12-16T05:11:36.940Z,35.40
2018-12-16T05:14:05.430Z,31.93
2018-12-16T05:16:33.886Z,30.73
2018-12-16T05:19:02.329Z,31.77
2018-12-16T05:21:30.805Z,30.67
2018-12-16T05:23:59.169Z,31.40
2018-12-16T05:26:27.702Z,31.50
2018-12-16T05:28:56.112Z,31.67
2018-12-16T05:31:24.420Z,31.27
2018-12-16T05:33:52.897Z,31.53
2018-12-16T05:36:21.488Z,30.97
2018-12-16T05:38:50.054Z,31.50
2018-12-16T05:41:18.569Z,33.50
2018-12-16T05:43:46.888Z,30.77
2018-12-16T05:46:15.408Z,30.70
2018-12-16T05:48:43.831Z,31.30
2018-12-16T05:51:12.292Z,29.13
2018-12-16T05:53:40.908Z,31.43
2018-12-16T05:56:09.268Z,27.33
2018-12-16T05:58:37.624Z,28.43
2018-12-16T06:01:06.368Z,30.23
2018-12-16T06:03:34.948Z,29.93
2018-12-16T06:06:03.460Z,27.97
2018-12-16T06:08:32.038Z,26.97
2018-12-16T06:11:00.564Z,25.87
2018-12-16T06:13:28.946Z,26.47
2018-12-16T06:15:57.386Z,27.07
2018-12-16T06:18:25.850Z,24.57
2018-12-16T06:20:54.321Z,28.07
2018-12-16T06:23:22.831Z,29.67
2018-12-16T06:25:51.211Z,27.03
2018-12-16T06:28:19.690Z,24.23
2018-12-16T06:30:49.476Z,26.93
2018-12-16T06:33:17.893Z,27.10
2018-12-16T06:35:46.429Z,27.47
2018-12-16T06:38:14.705Z,26.57
2018-12-16T06:40:43.728Z,27.27
2018-12-16T06:43:12.221Z,26.60
2018-12-16T06:45:40.776Z,26.00
2018-12-16T06:48:09.309Z,30.43
2018-12-16T06:50:37.795Z,31.27
2018-12-16T06:53:06.240Z,27.13
2018-12-16T06:55:35.558Z,28.27
2018-12-16T06:58:03.949Z,34.90
2018-12-16T07:00:32.449Z,37.30
2018-12-16T07:03:00.969Z,38.20
2018-12-16T07:05:29.536Z,42.53
2018-12-16T07:07:58.050Z,45.70
2018-12-16T07:10:26.599Z,43.63
2018-12-16T07:12:54.883Z,56.73
2018-12-16T07:15:23.465Z,53.20
2018-12-16T07:17:52.015Z,44.47
2018-12-16T07:20:20.388Z,48.50
2018-12-16T07:22:48.741Z,51.23
2018-12-16T07:25:17.351Z,46.93
2018-12-16T07:27:47.007Z,43.90
2018-12-16T07:33:00.848Z,41.20
2018-12-16T07:35:30.651Z,45.80
2018-12-16T07:37:59.068Z,49.70
2018-12-16T07:40:27.548Z,55.30
2018-12-16T07:42:56.106Z,58.90
2018-12-16T07:45:25.656Z,68.87
2018-12-16T07:47:54.120Z,74.80
2018-12-16T07:50:22.631Z,78.93
2018-12-16T07:52:51.093Z,85.33
2018-12-16T07:55:19.553Z,80.27
2018-12-16T07:57:47.932Z,80.53
2018-12-16T08:00:16.463Z,90.37
2018-12-16T08:02:45.066Z,75.97
2018-12-16T08:05:13.596Z,76.17
2018-12-16T08:07:42.021Z,65.47
2018-12-16T08:10:10.409Z,75.90
2018-12-16T08:12:38.811Z,87.00
2018-12-16T08:15:07.391Z,78.67
2018-12-16T08:17:35.945Z,78.97
2018-12-16T08:20:04.514Z,92.83
2018-12-16T08:22:32.994Z,109.77
2018-12-16T08:25:01.602Z,97.40
2018-12-16T08:27:30.151Z,86.10
2018-12-16T08:29:58.746Z,91.93
2018-12-16T08:32:27.267Z,85.50
2018-12-16T08:34:55.765Z,85.23
2018-12-16T08:37:24.624Z,106.87
2018-12-16T08:39:53.062Z,90.97
2018-12-16T08:42:21.595Z,65.33
2018-12-16T08:44:50.110Z,68.20
2018-12-16T08:47:18.541Z,73.60
2018-12-16T08:49:47.244Z,80.33
2018-12-16T08:52:15.642Z,75.70
2018-12-16T08:54:44.262Z,76.10
2018-12-16T08:57:12.820Z,72.63
2018-12-16T08:59:41.210Z,57.03
2018-12-16T09:02:09.785Z,57.50
2018-12-16T09:04:38.374Z,48.73
2018-12-16T09:07:06.861Z,47.73
2018-12-16T09:09:35.587Z,51.63
2018-12-16T09:12:04.171Z,54.77
2018-12-16T09:14:32.894Z,61.50
2018-12-16T09:17:07.231Z,68.63
2018-12-16T09:19:38.932Z,62.93
2018-12-16T09:22:14.081Z,56.57
2018-12-16T09:24:50.428Z,53.37
2018-12-16T09:27:27.290Z,43.53
2018-12-16T09:29:59.041Z,35.27
2018-12-16T09:32:34.634Z,30.93
2018-12-16T09:35:06.741Z,29.10
2018-12-16T09:37:46.549Z,29.70
2018-12-16T09:40:17.228Z,31.47
2018-12-16T09:42:47.120Z,32.47
2018-12-16T09:45:22.454Z,35.80
2018-12-16T09:47:58.475Z,33.23
2018-12-16T09:50:35.658Z,34.00
2018-12-16T09:53:06.868Z,31.43
2018-12-16T09:56:20.353Z,33.80
2018-12-16T10:05:34.777Z,36.43
2018-12-16T10:08:12.016Z,30.73
2018-12-16T10:10:42.763Z,31.67
2018-12-16T10:13:25.088Z,30.50
2018-12-16T10:16:00.970Z,33.40
2018-12-16T10:18:38.913Z,29.13
2018-12-16T10:21:14.569Z,29.73
2018-12-16T10:23:43.123Z,29.80
2018-12-16T10:26:14.593Z,28.27
2018-12-16T10:28:43.089Z,36.07
2018-12-16T10:31:11.584Z,37.23
2018-12-16T10:33:41.323Z,36.43
2018-12-16T10:36:10.937Z,36.43
2018-12-16T10:38:39.409Z,36.70
2018-12-16T10:41:19.667Z,34.40
2018-12-16T10:43:51.385Z,34.60
2018-12-16T10:46:26.012Z,31.60
2018-12-16T10:51:28.109Z,34.33
2018-12-16T10:54:01.185Z,33.43
2018-12-16T10:56:39.094Z,32.23
2018-12-16T10:59:07.516Z,32.43
2018-12-16T11:01:36.142Z,28.97
2018-12-16T11:04:05.256Z,30.20
2018-12-16T11:06:33.887Z,30.03
2018-12-16T11:09:02.501Z,35.33
2018-12-16T11:11:31.051Z,50.90
2018-12-16T11:14:00.762Z,40.83
2018-12-16T11:16:29.405Z,37.10
2018-12-16T11:19:02.386Z,33.60
2018-12-16T11:21:33.946Z,32.27
2018-12-16T11:24:08.985Z,33.10
2018-12-16T11:26:37.541Z,31.47
2018-12-16T11:29:06.019Z,30.90
2018-12-16T11:31:34.633Z,33.00
2018-12-16T11:34:13.849Z,33.70
2018-12-16T11:41:07.390Z,29.70
2018-12-16T11:46:29.165Z,29.33
2018-12-16T11:49:07.787Z,32.57
2018-12-16T11:51:46.717Z,28.73
2018-12-16T11:54:32.850Z,27.97
2018-12-16T11:57:08.588Z,27.67
2018-12-16T11:59:40.273Z,28.17
2018-12-16T12:02:25.004Z,29.00
2018-12-16T12:05:09.678Z,28.37
2018-12-16T12:11:11.357Z,24.53
2018-12-16T12:14:02.085Z,25.00
2018-12-16T12:41:21.873Z,30.43
2018-12-16T12:43:50.488Z,30.83
2018-12-16T12:46:19.011Z,30.97
2018-12-16T12:48:47.404Z,37.13
2018-12-16T12:51:16.000Z,35.40
2018-12-16T12:53:44.445Z,33.13
2018-12-16T12:56:13.927Z,31.00
2018-12-16T12:58:42.445Z,29.97
2018-12-16T13:01:10.890Z,29.40
2018-12-16T13:03:39.260Z,30.33
2018-12-16T13:06:07.766Z,33.27
2018-12-16T13:08:36.238Z,37.83
2018-12-16T13:11:04.676Z,33.53
2018-12-16T13:13:33.138Z,35.43
2018-12-16T13:16:01.700Z,33.50
2018-12-16T13:18:30.621Z,34.20
2018-12-16T13:21:00.017Z,32.43
2018-12-16T13:23:28.494Z,31.47
2018-12-16T13:26:01.168Z,29.83
2018-12-16T13:28:29.718Z,31.23
2018-12-16T13:30:58.234Z,33.80
2018-12-16T13:33:26.910Z,35.30
2018-12-16T13:35:56.118Z,34.03
2018-12-16T13:38:24.708Z,31.47
2018-12-16T13:40:56.335Z,32.60
2018-12-16T13:43:25.192Z,36.80
2018-12-16T13:45:53.699Z,37.37
2018-12-16T13:48:23.242Z,37.83
2018-12-16T13:50:51.791Z,35.63
2018-12-16T13:53:20.382Z,35.33
2018-12-16T13:55:48.993Z,31.80
2018-12-16T13:58:18.085Z,31.70
2018-12-16T14:00:46.675Z,35.97
2018-12-16T14:03:15.251Z,33.00
2018-12-16T14:05:46.749Z,33.67
2018-12-16T14:08:14.607Z,35.07
2018-12-16T14:10:47.363Z,33.90
2018-12-16T14:13:15.977Z,37.03
2018-12-16T14:15:52.118Z,38.50
2018-12-16T14:18:16.375Z,35.10
2018-12-16T14:20:44.915Z,34.70
2018-12-16T14:23:21.186Z,42.45
2018-12-16T14:25:58.264Z,35.23
2018-12-16T14:28:27.031Z,33.77
2018-12-16T14:30:55.557Z,33.57
2018-12-16T14:33:24.024Z,34.17
2018-12-16T14:38:24.604Z,37.07
2018-12-16T14:40:53.116Z,37.47
2018-12-16T14:43:21.588Z,39.50
2018-12-16T14:45:50.174Z,39.43
2018-12-16T14:48:18.737Z,37.00
2018-12-16T14:50:47.262Z,37.50
2018-12-16T14:53:16.065Z,37.40
2018-12-16T14:55:44.626Z,36.83
2018-12-16T14:58:13.287Z,40.13
2018-12-16T15:00:41.838Z,43.10
2018-12-16T15:03:10.944Z,38.00
2018-12-16T15:05:39.504Z,41.50
2018-12-16T15:08:10.123Z,39.67
2018-12-16T15:10:47.775Z,41.67
2018-12-16T15:13:19.703Z,36.07
2018-12-16T15:15:52.558Z,34.60
2018-12-16T15:18:22.713Z,38.98
2018-12-16T15:20:51.561Z,39.37
2018-12-16T15:23:20.064Z,38.97
2018-12-16T15:26:50.149Z,40.90
2018-12-16T15:29:20.862Z,41.90
2018-12-16T15:32:35.441Z,40.90
2018-12-16T15:35:06.157Z,43.93
2018-12-16T15:37:36.382Z,43.47
2018-12-16T15:40:06.920Z,43.53
2018-12-16T15:42:36.840Z,40.37
2018-12-16T15:45:12.188Z,42.43
2018-12-16T15:47:49.881Z,39.07
2018-12-16T15:50:25.147Z,41.60
2018-12-16T15:53:01.579Z,39.30
2018-12-16T15:55:42.147Z,40.20
2018-12-16T15:58:12.448Z,41.30
2018-12-16T16:00:46.768Z,36.57
2018-12-16T16:03:21.908Z,38.03
2018-12-16T16:05:52.251Z,38.00
2018-12-16T16:08:22.463Z,36.07
2018-12-16T16:10:53.289Z,34.53
2018-12-16T16:13:24.960Z,32.30
2018-12-16T16:15:55.997Z,35.20
2018-12-16T16:18:27.331Z,36.70
2018-12-16T16:20:58.779Z,36.57
2018-12-16T16:23:29.105Z,31.60
2018-12-16T16:25:59.841Z,30.33
2018-12-16T16:28:30.267Z,30.83
2018-12-16T16:31:00.383Z,30.27
2018-12-16T16:33:31.448Z,31.00
2018-12-16T16:36:02.467Z,30.40
2018-12-16T16:38:32.889Z,30.20
2018-12-16T16:41:02.821Z,31.83
2018-12-16T16:43:36.826Z,30.80
2018-12-16T16:46:08.580Z,30.73
2018-12-16T16:48:39.104Z,31.57
2018-12-16T16:51:09.117Z,32.27
2018-12-16T16:53:39.128Z,33.03
2018-12-16T16:56:08.946Z,32.27
2018-12-16T16:58:39.370Z,33.17
2018-12-16T17:01:10.207Z,32.60
2018-12-16T17:03:40.323Z,30.90
2018-12-16T17:06:11.058Z,33.00
2018-12-16T17:08:41.177Z,34.87
2018-12-16T17:11:12.446Z,33.40
2018-12-16T17:13:42.606Z,32.70
2018-12-16T17:16:15.829Z,30.87
2018-12-16T17:18:46.380Z,33.07
2018-12-16T17:21:17.808Z,29.63
2018-12-16T17:23:48.576Z,30.67
2018-12-16T17:26:22.247Z,28.97
2018-12-16T17:28:53.398Z,28.60
2018-12-16T17:31:25.772Z,28.20
2018-12-16T17:33:59.567Z,26.53
2018-12-16T17:36:32.168Z,26.70
2018-12-16T17:39:03.798Z,29.57
2018-12-16T17:41:36.786Z,27.77
2018-12-16T17:44:07.517Z,26.97
2018-12-16T17:46:40.912Z,27.30
2018-12-16T17:49:17.022Z,28.27
2018-12-16T17:51:48.938Z,27.83
2018-12-16T17:54:23.358Z,27.77
2018-12-16T17:56:55.263Z,27.43
2018-12-16T17:59:26.996Z,31.33
2018-12-16T18:01:58.847Z,29.87
2018-12-16T18:04:34.188Z,29.17
2018-12-16T18:07:05.107Z,27.00
2018-12-16T18:09:39.454Z,27.20
2018-12-16T18:12:17.548Z,25.97
2018-12-16T18:14:48.780Z,26.00
2018-12-16T18:17:21.869Z,24.77
2018-12-16T18:19:54.660Z,25.50
2018-12-16T18:22:27.128Z,26.07
2018-12-16T18:24:58.479Z,23.60
2018-12-16T18:27:36.701Z,27.00
2018-12-16T18:30:08.848Z,25.80
2018-12-16T18:32:42.762Z,25.77
2018-12-16T18:35:15.649Z,25.50
2018-12-16T18:37:48.538Z,26.20
2018-12-16T18:40:21.096Z,25.40
2018-12-16T18:42:51.940Z,25.43
2018-12-16T18:45:28.420Z,23.43
2018-12-16T18:48:00.564Z,24.90
2018-12-16T18:50:31.619Z,23.37
2018-12-16T18:53:04.292Z,23.53
2018-12-16T18:55:36.968Z,24.53
2018-12-16T18:58:11.908Z,25.33
2018-12-16T19:00:44.588Z,25.93
2018-12-16T19:03:18.483Z,26.43
2018-12-16T19:05:53.420Z,26.57
2018-12-16T19:08:30.048Z,28.80
2018-12-16T19:11:03.378Z,28.67
2018-12-16T19:13:43.539Z,28.03
2018-12-16T19:16:28.198Z,27.40
2018-12-16T19:55:51.271Z,36.13
2018-12-16T19:58:23.347Z,35.70
2018-12-16T20:00:55.921Z,34.50
2018-12-16T20:03:32.597Z,35.70
2018-12-16T20:06:08.027Z,36.33
2018-12-16T20:08:41.959Z,34.43
2018-12-16T20:11:13.707Z,36.20
2018-12-16T20:13:48.559Z,33.43
2018-12-16T20:16:19.889Z,34.37
2018-12-16T20:18:51.233Z,32.60
2018-12-16T20:21:21.861Z,33.13
2018-12-16T20:23:51.684Z,30.73
2018-12-16T20:26:26.395Z,32.03
2018-12-16T20:28:57.951Z,32.10
2018-12-16T20:31:28.689Z,32.27
2018-12-16T20:34:04.128Z,30.53
2018-12-16T20:36:37.001Z,31.70
2018-12-16T20:39:11.027Z,30.83
2018-12-16T20:41:41.546Z,32.60
2018-12-16T20:44:11.778Z,35.13
2018-12-16T20:46:42.091Z,32.53
2018-12-16T20:49:11.493Z,32.63
2018-12-16T20:51:42.431Z,32.70
2018-12-16T20:54:11.935Z,35.53
2018-12-16T20:56:41.452Z,31.87
2018-12-16T20:59:11.977Z,34.10
2018-12-16T21:01:42.998Z,32.80
2018-12-16T21:04:12.845Z,33.63
2018-12-16T21:06:42.848Z,35.87
2018-12-16T21:09:12.341Z,33.77
2018-12-16T21:11:47.171Z,32.93
2018-12-16T21:14:21.798Z,34.93
2018-12-16T21:16:55.804Z,32.77
2018-12-16T21:19:29.201Z,33.83
2018-12-16T21:21:58.910Z,34.97
2018-12-16T21:24:32.715Z,34.90
2018-12-16T21:27:09.184Z,34.87
2018-12-16T21:29:38.893Z,33.40
2018-12-16T21:32:11.368Z,33.83
2018-12-16T21:34:43.228Z,36.03
2018-12-16T21:37:13.342Z,33.53
2018-12-16T21:39:43.261Z,34.07
2018-12-16T21:42:14.084Z,30.50
2018-12-16T21:44:43.702Z,32.43
2018-12-16T21:47:13.102Z,32.50
2018-12-16T21:49:43.326Z,32.20
2018-12-16T21:52:13.142Z,33.87
2018-12-16T21:54:44.014Z,37.80
2018-12-16T21:57:13.902Z,35.97
2018-12-16T21:59:44.204Z,33.30
2018-12-16T22:02:14.333Z,36.00
2018-12-16T22:04:45.010Z,35.43
2018-12-16T22:07:17.953Z,36.43
2018-12-16T22:09:47.858Z,35.63
2018-12-16T22:12:17.874Z,36.93
2018-12-16T22:14:47.582Z,36.10
2018-12-16T22:17:17.814Z,35.60
2018-12-16T22:19:48.334Z,34.47
2018-12-16T22:22:18.367Z,36.07
2018-12-16T22:24:47.973Z,35.03
2018-12-16T22:27:18.083Z,33.87
2018-12-16T22:29:47.884Z,31.67
2018-12-16T22:32:17.709Z,32.67
2018-12-16T22:34:47.610Z,33.60
2018-12-16T22:37:17.624Z,32.73
2018-12-16T22:39:47.950Z,32.20
2018-12-16T22:42:17.457Z,30.13
2018-12-16T22:44:47.382Z,32.03
2018-12-16T22:47:17.385Z,31.83
2018-12-16T22:49:46.890Z,31.87
2018-12-16T22:52:16.302Z,32.10
2018-12-16T22:54:45.702Z,32.07
2018-12-16T22:57:15.207Z,31.53
2018-12-16T22:59:45.008Z,33.83
2018-12-16T23:02:14.729Z,33.90
2018-12-16T23:04:44.432Z,31.90
2018-12-16T23:07:14.006Z,32.63
2018-12-16T23:09:43.978Z,31.87
2018-12-16T23:12:13.876Z,30.03
2018-12-16T23:14:43.471Z,34.10
2018-12-16T23:17:12.991Z,31.83
2018-12-16T23:19:44.747Z,33.27
2018-12-16T23:22:14.465Z,34.63
2018-12-16T23:25:00.332Z,34.20
2018-12-16T23:27:38.336Z,37.83
2018-12-16T23:30:14.002Z,34.87
2018-12-16T23:32:47.705Z,33.20
